Time;durP1;ratioP1;P1;durP2;ratioP2;P2;SDS_P1;SDS_P2;PMS_P1;PMS_P2;Temp;Humidity;BMP_temperature;BMP_pressure;BME280_temperature;BME280_humidity;BME280_pressure;Samples;Min_cycle;Max_cycle;Signal;HPM_P1;HPM_P2
2023/09/25 00:01:47;;;;;;;;;4.00;1.00;;;;;17.61;42.75;101503.63;5021808;28;45396;-66
2023/09/25 00:04:13;;;;;;;;;3.00;3.00;;;;;17.54;42.86;101494.97;5021891;28;45247;-67
2023/09/25 00:06:38;;;;;;;;;4.00;2.00;;;;;17.56;43.23;101509.09;5039678;28;45475;-67
2023/09/25 00:09:05;;;;;;;;;2.25;2.25;;;;;17.49;43.17;101500.41;5039765;28;45305;-67
2023/09/25 00:11:30;;;;;;;;;2.00;2.00;;;;;17.45;43.20;101497.94;5021589;28;45358;-67
2023/09/25 00:13:56;;;;;;;;;2.25;1.75;;;;;17.51;43.32;101508.38;5039807;28;45224;-67
2023/09/25 00:16:22;;;;;;;;;3.00;3.00;;;;;17.50;43.20;101520.78;5039579;28;45421;-67
2023/09/25 00:18:47;;;;;;;;;3.00;2.50;;;;;17.51;43.51;101521.66;5039365;28;45736;-67
2023/09/25 00:21:13;;;;;;;;;2.25;1.25;;;;;17.49;43.22;101529.66;5021522;28;45346;-67
2023/09/25 00:23:38;;;;;;;;;2.25;2.00;;;;;17.49;43.27;101531.44;5039715;28;45306;-67
2023/09/25 00:26:08;;;;;;;;;2.00;2.00;;;;;17.45;42.90;101530.66;5039241;28;45456;-67
2023/09/25 00:28:34;;;;;;;;;3.75;3.25;;;;;17.47;43.37;101534.16;5023219;28;47250;-67
2023/09/25 00:31:00;;;;;;;;;1.00;1.00;;;;;17.45;43.23;101532.47;5042777;28;45219;-66
2023/09/25 00:33:26;;;;;;;;;2.00;2.00;;;;;17.43;43.49;101527.19;5042940;28;45340;-66
2023/09/25 00:35:53;;;;;;;;;3.00;3.00;;;;;17.45;43.39;101529.81;5042874;28;45519;-67
2023/09/25 00:38:19;;;;;;;;;2.25;2.00;;;;;17.46;43.71;101532.41;5017079;28;47244;-67
2023/09/25 00:40:44;;;;;;;;;2.50;2.00;;;;;17.44;43.50;101534.25;5004742;28;45366;-66
2023/09/25 00:43:13;;;;;;;;;3.50;2.00;;;;;17.43;43.60;101526.31;5023031;28;45322;-66
2023/09/25 00:45:40;;;;;;;;;2.25;1.50;;;;;17.44;43.58;101534.25;5022452;28;45267;-66
2023/09/25 00:48:11;;;;;;;;;5.75;3.00;;;;;17.45;43.73;101535.13;5022485;28;45251;-67
2023/09/25 00:50:37;;;;;;;;;5.75;3.00;;;;;17.43;43.91;101527.19;5022593;28;45416;-67
2023/09/25 00:53:09;;;;;;;;;2.75;2.25;;;;;17.43;43.76;101524.53;5024801;28;45654;-66
2023/09/25 00:55:35;;;;;;;;;2.75;2.00;;;;;17.41;43.76;101513.09;5038095;28;45400;-66
2023/09/25 00:58:01;;;;;;;;;4.75;4.00;;;;;17.43;43.76;101527.19;5004700;28;46083;-67
2023/09/25 01:00:26;;;;;;;;;3.50;2.00;;;;;17.40;43.82;101516.66;5039432;28;45336;-66
2023/09/25 01:02:52;;;;;;;;;2.75;2.75;;;;;17.39;43.66;101520.22;5024377;28;45334;-67
2023/09/25 01:05:17;;;;;;;;;4.75;2.00;;;;;17.37;44.15;101516.72;5042437;28;45468;-67
2023/09/25 01:07:43;;;;;;;;;4.50;2.50;;;;;17.38;44.01;101519.38;5042272;28;46218;-67
2023/09/25 01:10:17;;;;;;;;;3.50;2.00;;;;;17.38;43.61;101523.78;5024195;28;45316;-66
2023/09/25 01:12:43;;;;;;;;;1.75;1.75;;;;;17.36;43.84;101520.34;5042487;28;45331;-67
2023/09/25 01:15:09;;;;;;;;;4.50;2.00;;;;;17.32;44.04;101514.25;5041990;28;45405;-67
2023/09/25 01:17:35;;;;;;;;;2.50;2.00;;;;;17.33;44.03;101517.75;5042005;28;45301;-67
2023/09/25 01:20:06;;;;;;;;;1.50;1.50;;;;;17.32;44.17;101516.00;5042176;28;45281;-66
2023/09/25 01:22:31;;;;;;;;;1.25;1.00;;;;;17.26;43.84;101509.09;5024397;28;45340;-66
2023/09/25 01:24:56;;;;;;;;;1.25;1.25;;;;;17.20;44.03;101498.66;5041801;28;45265;-67
2023/09/25 01:27:22;;;;;;;;;2.50;2.00;;;;;17.27;44.03;101507.31;5042087;28;46010;-66
2023/09/25 01:29:47;;;;;;;;;4.00;1.00;;;;;17.25;44.20;101501.19;5041971;28;45249;-67
2023/09/25 01:32:12;;;;;;;;;1.50;1.50;;;;;17.24;44.29;101510.06;5023900;28;45539;-66
2023/09/25 01:34:38;;;;;;;;;3.50;2.50;;;;;17.20;44.14;101499.53;5041791;28;45365;-67
2023/09/25 01:37:04;;;;;;;;;3.00;2.00;;;;;17.18;44.30;101503.16;5023929;28;47010;-67
2023/09/25 01:39:31;;;;;;;;;2.25;2.25;;;;;17.18;44.24;101504.03;5025582;28;45425;-67
2023/09/25 01:41:56;;;;;;;;;4.50;2.25;;;;;17.17;44.40;101520.03;5030818;28;45261;-66
2023/09/25 01:44:23;;;;;;;;;3.25;2.25;;;;;17.13;44.21;101505.06;5021549;28;48755;-67
2023/09/25 01:46:49;;;;;;;;;2.00;2.00;;;;;17.12;44.38;101505.97;5021466;28;45376;-67
2023/09/25 01:49:14;;;;;;;;;2.25;2.25;;;;;17.11;44.20;101512.22;5021809;28;45533;-67
2023/09/25 01:51:39;;;;;;;;;2.50;2.50;;;;;17.09;44.66;101511.41;5022052;28;45368;-67
2023/09/25 01:54:05;;;;;;;;;2.00;2.00;;;;;17.06;44.23;101515.88;5032225;28;45551;-67
2023/09/25 01:56:30;;;;;;;;;2.25;2.00;;;;;17.05;44.14;101515.91;5012399;28;45373;-67
2023/09/25 01:58:55;;;;;;;;;3.00;2.00;;;;;17.05;44.32;101526.53;5026070;28;46193;-67
2023/09/25 02:01:21;;;;;;;;;2.75;1.75;;;;;17.03;44.41;101517.75;5023838;28;45412;-66
2023/09/25 02:03:46;;;;;;;;;3.75;3.00;;;;;17.02;44.63;101521.34;5041238;28;45468;-66
2023/09/25 02:06:12;;;;;;;;;4.50;3.00;;;;;17.00;44.28;101523.16;5041411;28;45487;-67
2023/09/25 02:08:40;;;;;;;;;2.50;2.00;;;;;16.99;44.53;101516.09;5023135;28;53616;-67
2023/09/25 02:11:05;;;;;;;;;2.00;2.00;;;;;16.94;44.48;101510.91;5023643;28;45259;-67
2023/09/25 02:13:30;;;;;;;;;3.00;3.00;;;;;16.92;44.71;101519.81;5041201;28;45237;-67
2023/09/25 02:15:56;;;;;;;;;3.50;2.00;;;;;16.86;44.39;101503.13;5041322;28;47396;-67
2023/09/25 02:18:21;;;;;;;;;4.50;2.50;;;;;16.85;44.72;101508.50;5041051;28;45226;-66
2023/09/25 02:20:47;;;;;;;;;4.00;2.00;;;;;16.81;44.23;101507.69;5041704;28;45630;-66
2023/09/25 02:23:12;;;;;;;;;3.00;2.00;;;;;16.76;44.93;101504.31;5041146;28;45232;-67
2023/09/25 02:25:38;;;;;;;;;2.00;2.00;;;;;16.75;44.92;101502.56;5023117;28;47247;-67
2023/09/25 02:28:03;;;;;;;;;2.00;2.00;;;;;16.70;44.58;101500.06;5023198;28;45376;-67
2023/09/25 02:30:29;;;;;;;;;3.00;3.00;;;;;16.69;44.56;101508.03;5041304;28;45316;-67
2023/09/25 02:32:54;;;;;;;;;2.00;2.00;;;;;16.64;45.21;101509.94;5040907;28;45545;-67
2023/09/25 02:35:19;;;;;;;;;1.75;1.75;;;;;16.64;44.87;101515.25;5040746;28;51357;-66
2023/09/25 02:37:45;;;;;;;;;2.75;2.75;;;;;16.59;44.88;101502.16;5034905;28;45311;-67
2023/09/25 02:40:17;;;;;;;;;3.00;3.00;;;;;16.59;44.84;101502.16;5021057;28;45326;-67
2023/09/25 02:42:44;;;;;;;;;2.25;2.25;;;;;16.60;44.75;101503.00;5020923;28;45415;-66
2023/09/25 02:45:10;;;;;;;;;3.75;2.00;;;;;16.59;44.77;101504.78;5020677;28;45350;-66
2023/09/25 02:47:36;;;;;;;;;2.00;2.00;;;;;16.57;44.85;101506.59;5002579;28;45328;-67
2023/09/25 02:50:01;;;;;;;;;2.00;2.00;;;;;16.53;44.97;101505.81;5003248;28;45436;-67
2023/09/25 02:52:27;;;;;;;;;4.25;3.00;;;;;16.56;45.17;101505.75;5002878;28;45327;-66
2023/09/25 02:54:52;;;;;;;;;2.00;0.00;;;;;16.54;44.88;101501.38;5037806;28;45353;-66
2023/09/25 02:57:17;;;;;;;;;1.25;1.25;;;;;16.52;45.02;101497.91;5003393;28;45436;-67
2023/09/25 02:59:43;;;;;;;;;3.00;2.00;;;;;16.49;44.84;101495.31;5031951;28;45256;-67
2023/09/25 03:02:08;;;;;;;;;0.00;0.00;;;;;16.50;44.91;101505.91;5040356;28;45468;-67
2023/09/25 03:04:33;;;;;;;;;1.75;1.75;;;;;16.44;44.83;101495.47;5022194;28;46893;-66
2023/09/25 03:06:59;;;;;;;;;3.00;2.00;;;;;16.44;44.91;101503.41;5040496;28;45467;-67
2023/09/25 03:09:24;;;;;;;;;3.75;2.25;;;;;16.42;44.96;101506.09;5040849;28;45422;-67
2023/09/25 03:11:51;;;;;;;;;2.00;2.00;;;;;16.40;45.36;101497.31;5022343;28;45277;-66
2023/09/25 03:14:16;;;;;;;;;3.00;2.00;;;;;16.40;45.39;101507.03;5022556;28;48139;-66
2023/09/25 03:16:41;;;;;;;;;3.00;3.00;;;;;16.39;44.96;101505.31;5022171;28;46518;-66
2023/09/25 03:19:07;;;;;;;;;3.00;2.00;;;;;16.37;45.31;101504.50;5040621;28;45222;-66
2023/09/25 03:21:33;;;;;;;;;1.00;1.00;;;;;16.36;45.01;101508.03;5040214;28;45678;-67
2023/09/25 03:23:58;;;;;;;;;2.50;2.00;;;;;16.33;45.39;101506.34;5022312;28;46108;-66
2023/09/25 03:26:24;;;;;;;;;1.50;1.50;;;;;16.33;45.53;101510.78;5039898;28;45443;-66
2023/09/25 03:28:49;;;;;;;;;1.00;1.00;;;;;16.33;45.56;101505.50;5040735;28;45361;-66
2023/09/25 03:31:15;;;;;;;;;3.50;2.50;;;;;16.31;45.44;101507.28;5022235;28;45562;-66
2023/09/25 03:33:41;;;;;;;;;1.00;0.00;;;;;16.29;45.62;101514.41;5039986;28;45454;-66
2023/09/25 03:36:07;;;;;;;;;2.00;2.00;;;;;16.27;45.49;101519.75;5022164;28;45692;-66
2023/09/25 03:38:33;;;;;;;;;1.25;1.25;;;;;16.25;45.71;101516.25;5014204;28;45448;-66
2023/09/25 03:40:59;;;;;;;;;2.00;2.00;;;;;16.26;45.69;101528.63;5019889;28;45540;-66
2023/09/25 03:43:25;;;;;;;;;1.75;1.00;;;;;16.22;45.63;101525.16;5020127;28;45999;-66
2023/09/25 03:45:50;;;;;;;;;3.00;3.00;;;;;16.20;45.48;101531.44;5019788;28;45167;-67
2023/09/25 03:48:16;;;;;;;;;2.50;2.50;;;;;16.18;45.23;101527.97;5020108;28;45217;-66
2023/09/25 03:50:41;;;;;;;;;3.50;3.25;;;;;16.12;45.64;101526.31;5019964;28;45409;-66
2023/09/25 03:53:06;;;;;;;;;3.00;3.00;;;;;16.17;45.55;101545.63;5022572;28;46281;-66
2023/09/25 03:55:32;;;;;;;;;3.50;3.00;;;;;16.16;45.37;101538.63;5036148;28;45289;-66
2023/09/25 03:57:58;;;;;;;;;2.00;2.00;;;;;16.12;45.28;101528.13;5001811;28;45250;-66
2023/09/25 04:00:24;;;;;;;;;1.00;1.00;;;;;16.13;45.69;101535.16;5035561;28;45389;-66
2023/09/25 04:02:50;;;;;;;;;2.75;1.50;;;;;16.08;45.66;101512.25;5022257;28;47488;-66
2023/09/25 04:05:16;;;;;;;;;1.00;1.00;;;;;16.06;45.58;101518.50;5025386;28;45626;-66
2023/09/25 04:07:41;;;;;;;;;1.00;1.00;;;;;16.07;45.86;101534.41;5025482;28;45395;-66
2023/09/25 04:10:07;;;;;;;;;2.50;2.50;;;;;16.01;45.43;101526.59;5043177;28;45352;-66
2023/09/25 04:12:36;;;;;;;;;2.00;2.00;;;;;16.01;45.64;101523.06;5043381;28;46111;-66
2023/09/25 04:15:02;;;;;;;;;2.75;2.00;;;;;15.99;45.87;101522.25;5025109;28;45386;-66
2023/09/25 04:17:28;;;;;;;;;1.75;1.75;;;;;15.93;45.72;101524.09;5043194;28;45300;-66
2023/09/25 04:19:53;;;;;;;;;3.00;2.00;;;;;15.94;45.73;101530.31;5025030;28;45343;-66
2023/09/25 04:22:20;;;;;;;;;3.50;3.00;;;;;15.90;46.10;101529.50;5043198;28;46466;-66
2023/09/25 04:24:46;;;;;;;;;1.75;1.75;;;;;15.90;46.05;101529.50;5043063;28;45413;-66
2023/09/25 04:27:11;;;;;;;;;2.00;2.00;;;;;15.89;45.76;101534.84;5025075;28;45357;-66
2023/09/25 04:29:38;;;;;;;;;2.75;2.75;;;;;15.89;45.60;101535.72;5042880;28;45565;-66
2023/09/25 04:32:03;;;;;;;;;2.00;1.75;;;;;15.87;45.80;101542.84;5042873;28;45401;-66
2023/09/25 04:34:29;;;;;;;;;2.25;1.00;;;;;15.86;46.09;101534.91;5042909;28;45288;-67
2023/09/25 04:36:54;;;;;;;;;2.25;1.50;;;;;15.85;45.91;101535.84;5043027;28;45372;-66
2023/09/25 04:39:20;;;;;;;;;3.00;3.00;;;;;15.83;45.74;101530.53;5026289;28;45271;-66
2023/09/25 04:41:47;;;;;;;;;4.25;4.00;;;;;15.85;46.06;101542.00;5031946;28;45211;-66
2023/09/25 04:44:12;;;;;;;;;2.50;1.50;;;;;15.85;46.26;101552.59;5022899;28;46381;-67
2023/09/25 04:46:37;;;;;;;;;4.00;2.25;;;;;15.83;46.01;101548.25;5004636;28;45448;-66
2023/09/25 04:49:06;;;;;;;;;7.00;5.25;;;;;15.81;45.68;101550.91;5022782;28;45206;-66
2023/09/25 04:51:32;;;;;;;;;6.00;5.50;;;;;15.79;45.92;101547.41;5004900;28;47056;-66
2023/09/25 04:53:58;;;;;;;;;7.00;7.00;;;;;15.77;46.28;101550.09;5032152;28;45436;-66
2023/09/25 04:56:23;;;;;;;;;4.50;4.25;;;;;15.79;45.88;101560.66;5031328;28;45400;-67
2023/09/25 04:58:48;;;;;;;;;4.00;4.00;;;;;15.77;45.81;101555.41;5026032;28;45302;-66
2023/09/25 05:01:14;;;;;;;;;3.50;3.00;;;;;15.76;46.03;101568.69;5042579;28;45369;-66
2023/09/25 05:03:40;;;;;;;;;3.00;3.00;;;;;15.76;46.14;101566.91;5024189;28;45309;-66
2023/09/25 05:06:12;;;;;;;;;4.25;3.50;;;;;15.75;46.14;101559.84;5042610;28;45313;-66
2023/09/25 05:08:38;;;;;;;;;3.25;3.25;;;;;15.73;45.84;101568.75;5042510;28;45291;-66
2023/09/25 05:11:05;;;;;;;;;8.25;4.75;;;;;15.71;46.32;101562.59;5041999;28;46418;-66
2023/09/25 05:13:31;;;;;;;;;2.25;2.25;;;;;15.70;46.03;101563.53;5042224;28;45236;-67
2023/09/25 05:15:56;;;;;;;;;4.50;3.25;;;;;15.69;46.65;101562.63;5041194;28;45165;-69
2023/09/25 05:18:22;;;;;;;;;3.00;2.00;;;;;15.66;46.13;101553.88;5023705;28;51647;-67
2023/09/25 05:20:47;;;;;;;;;4.75;2.50;;;;;15.66;46.17;101561.81;5024256;28;47328;-67
2023/09/25 05:23:13;;;;;;;;;3.00;2.50;;;;;15.67;46.10;101563.56;5042011;28;47572;-67
2023/09/25 05:25:38;;;;;;;;;2.75;2.25;;;;;15.61;46.33;101554.00;5042125;28;45275;-67
2023/09/25 05:28:05;;;;;;;;;2.00;2.00;;;;;15.64;46.54;101564.53;5042005;28;45466;-67
2023/09/25 05:30:30;;;;;;;;;3.00;3.00;;;;;15.55;46.22;101557.66;5024261;28;47437;-67
2023/09/25 05:32:55;;;;;;;;;4.25;3.00;;;;;15.57;46.14;101573.50;5023673;28;49325;-67
2023/09/25 05:35:21;;;;;;;;;3.25;2.75;;;;;15.55;46.27;101565.59;5042128;28;45274;-67
2023/09/25 05:37:47;;;;;;;;;4.00;3.00;;;;;15.57;46.48;101573.50;5038556;28;45564;-65
2023/09/25 05:40:14;;;;;;;;;2.50;2.25;;;;;15.57;46.42;101579.69;5003347;28;46631;-65
2023/09/25 05:42:44;;;;;;;;;4.00;4.00;;;;;15.53;46.37;101572.69;5007502;28;45287;-67
2023/09/25 05:45:11;;;;;;;;;5.00;2.50;;;;;15.54;46.64;101574.44;5041869;28;45448;-65
2023/09/25 05:47:36;;;;;;;;;4.75;1.50;;;;;15.53;46.31;101574.47;5023626;28;45397;-65
2023/09/25 05:50:06;;;;;;;;;5.00;4.25;;;;;15.50;46.68;101574.56;5003742;28;47572;-65
2023/09/25 05:52:35;;;;;;;;;3.00;3.00;;;;;15.48;46.69;101574.56;5021887;28;45222;-65
2023/09/25 05:55:01;;;;;;;;;5.00;5.00;;;;;15.49;46.59;101578.09;5039474;28;45349;-65
2023/09/25 05:57:27;;;;;;;;;3.50;3.50;;;;;15.48;46.24;101593.09;5022926;28;45380;-65
2023/09/25 05:59:52;;;;;;;;;7.75;3.75;;;;;15.44;46.85;101587.03;5033262;28;45469;-67
2023/09/25 06:02:17;;;;;;;;;6.00;3.50;;;;;15.46;46.72;101592.28;5041278;28;45254;-65
2023/09/25 06:04:43;;;;;;;;;3.00;3.00;;;;;15.47;46.68;101591.38;5023677;28;45265;-62
2023/09/25 06:07:08;;;;;;;;;3.25;2.75;;;;;15.45;46.95;101595.84;5040990;28;45376;-62
2023/09/25 06:09:33;;;;;;;;;4.25;3.00;;;;;15.47;46.53;101596.69;5022997;28;46099;-62
2023/09/25 06:12:00;;;;;;;;;4.00;3.75;;;;;15.45;46.82;101598.47;5022128;28;45310;-62
2023/09/25 06:14:29;;;;;;;;;3.25;2.00;;;;;15.45;46.96;101606.44;5021461;28;45228;-62
2023/09/25 06:16:57;;;;;;;;;3.75;3.50;;;;;15.44;46.65;101597.63;5020957;28;45322;-62
2023/09/25 06:19:22;;;;;;;;;3.25;2.25;;;;;15.42;46.84;101599.41;5020678;28;45423;-63
2023/09/25 06:21:48;;;;;;;;;3.25;3.25;;;;;15.47;46.93;101606.38;5020796;28;45400;-62
2023/09/25 06:24:14;;;;;;;;;3.00;3.00;;;;;15.43;47.01;101611.78;5021291;28;45449;-64
2023/09/25 06:26:41;;;;;;;;;3.25;3.25;;;;;15.45;46.59;101611.72;5020460;28;45607;-63
2023/09/25 06:29:08;;;;;;;;;4.75;3.25;;;;;15.45;47.00;101611.72;5021055;28;46294;-64
2023/09/25 06:31:34;;;;;;;;;3.00;3.00;;;;;15.42;46.72;101601.19;5002913;28;45263;-63
2023/09/25 06:33:59;;;;;;;;;3.50;3.25;;;;;15.43;46.56;101597.63;5021080;28;45270;-62
2023/09/25 06:36:25;;;;;;;;;5.25;3.75;;;;;15.44;46.76;101599.38;5026863;28;45365;-62
2023/09/25 06:38:50;;;;;;;;;3.00;3.00;;;;;15.44;47.16;101609.97;5028439;28;46438;-62
2023/09/25 06:41:15;;;;;;;;;3.00;2.25;;;;;15.44;46.84;101604.69;5003131;28;45366;-62
2023/09/25 06:43:41;;;;;;;;;4.75;3.00;;;;;15.37;46.81;101596.00;5021142;28;45279;-62
2023/09/25 06:46:06;;;;;;;;;5.00;3.75;;;;;15.44;46.80;101607.31;5020638;28;45506;-63
2023/09/25 06:48:34;;;;;;;;;3.00;3.00;;;;;15.44;46.89;101604.69;5020162;28;52778;-64
2023/09/25 06:51:00;;;;;;;;;5.00;4.00;;;;;15.46;47.29;101608.19;5018931;28;45275;-63
2023/09/25 06:53:26;;;;;;;;;4.00;3.00;;;;;15.48;47.21;101614.31;5007509;28;45488;-63
2023/09/25 06:55:51;;;;;;;;;3.25;2.50;;;;;15.48;47.18;101622.25;5034142;28;45654;-63
2023/09/25 06:58:17;;;;;;;;;5.25;4.00;;;;;15.47;47.24;101623.19;5020226;28;46198;-64
2023/09/25 07:00:45;;;;;;;;;3.25;3.00;;;;;15.46;47.41;101617.88;5039845;28;45479;-64
2023/09/25 07:03:11;;;;;;;;;4.50;3.75;;;;;15.47;47.22;101614.34;5040545;28;45313;-63
2023/09/25 07:05:36;;;;;;;;;5.00;5.00;;;;;15.48;47.22;101606.34;5022572;28;45829;-67
2023/09/25 07:08:02;;;;;;;;;4.25;4.25;;;;;15.47;47.15;101609.94;5040356;28;46095;-65
2023/09/25 07:10:27;;;;;;;;;2.00;1.75;;;;;15.49;46.89;101610.75;5040358;28;45462;-65
2023/09/25 07:12:52;;;;;;;;;3.00;3.00;;;;;15.47;47.36;101612.59;5040675;28;45313;-65
2023/09/25 07:15:19;;;;;;;;;5.25;4.50;;;;;15.42;47.20;101609.13;5040387;28;45284;-65
2023/09/25 07:17:47;;;;;;;;;3.75;2.50;;;;;15.46;47.10;101613.47;5040146;28;46183;-65
2023/09/25 07:20:12;;;;;;;;;4.25;2.25;;;;;15.48;47.55;101622.25;5040174;28;45333;-65
2023/09/25 07:22:37;;;;;;;;;3.00;3.00;;;;;15.49;47.43;101624.00;5022713;28;45270;-64
2023/09/25 07:25:03;;;;;;;;;4.00;3.25;;;;;15.50;46.95;101622.25;5040080;28;45444;-64
2023/09/25 07:27:29;;;;;;;;;5.75;2.75;;;;;15.48;47.83;101616.94;5040310;28;45259;-65
2023/09/25 07:29:54;;;;;;;;;4.25;3.50;;;;;15.53;47.57;101628.31;5022170;28;45609;-65
2023/09/25 07:32:20;;;;;;;;;4.50;3.00;;;;;15.57;47.49;101637.06;5040338;28;45445;-65
2023/09/25 07:34:45;;;;;;;;;3.75;3.75;;;;;15.58;47.72;101634.41;5040037;28;45416;-65
2023/09/25 07:37:12;;;;;;;;;4.25;4.25;;;;;15.61;47.51;101625.53;5039353;28;45548;-65
2023/09/25 07:39:40;;;;;;;;;5.25;3.00;;;;;15.63;47.55;101625.50;5022565;28;46178;-65
2023/09/25 07:42:09;;;;;;;;;3.00;3.00;;;;;15.68;47.30;101634.22;5027406;28;45323;-65
2023/09/25 07:44:35;;;;;;;;;4.00;4.00;;;;;15.68;47.70;101626.25;5020041;28;45494;-65
2023/09/25 07:47:04;;;;;;;;;7.50;4.50;;;;;15.74;47.41;101642.03;5001792;28;47205;-65
2023/09/25 07:49:29;;;;;;;;;6.00;6.00;;;;;15.79;47.40;101636.66;5027106;28;45331;-65
2023/09/25 07:51:54;;;;;;;;;4.25;4.25;;;;;15.81;47.56;101634.81;5039942;28;45481;-65
2023/09/25 07:54:20;;;;;;;;;6.00;4.25;;;;;15.87;47.29;101634.72;5027342;28;45354;-65
2023/09/25 07:56:46;;;;;;;;;6.50;6.00;;;;;15.91;47.45;101629.31;5019215;28;45566;-65
2023/09/25 07:59:13;;;;;;;;;11.00;7.00;;;;;15.93;47.53;101626.63;5026772;28;46426;-65
2023/09/25 08:01:39;;;;;;;;;6.25;6.25;;;;;16.00;47.94;101630.88;5039756;28;45162;-65
2023/09/25 08:04:05;;;;;;;;;6.25;3.25;;;;;16.05;47.57;101629.00;5039850;28;45230;-65
2023/09/25 08:06:31;;;;;;;;;5.75;5.00;;;;;16.08;47.97;101638.66;5039581;28;45424;-65
2023/09/25 08:08:57;;;;;;;;;6.00;5.00;;;;;16.16;47.60;101638.47;5039729;28;45357;-66
2023/09/25 08:11:24;;;;;;;;;7.75;6.75;;;;;16.21;47.96;101644.53;5021860;28;45436;-66
2023/09/25 08:13:50;;;;;;;;;8.75;7.00;;;;;16.24;47.87;101640.03;5039726;28;45567;-65
2023/09/25 08:16:16;;;;;;;;;12.25;8.25;;;;;16.26;47.45;101637.34;5021574;28;48117;-65
2023/09/25 08:18:42;;;;;;;;;10.00;7.50;;;;;16.39;48.06;101643.25;5039353;28;45191;-66
2023/09/25 08:21:08;;;;;;;;;10.75;7.50;;;;;16.49;47.85;101652.72;5039571;28;45325;-65
2023/09/25 08:23:33;;;;;;;;;12.25;11.00;;;;;16.54;48.11;101642.88;5039623;28;45280;-65
2023/09/25 08:25:58;;;;;;;;;7.25;6.00;;;;;16.63;47.81;101641.78;5039289;28;45836;-65
2023/09/25 08:28:24;;;;;;;;;10.75;7.75;;;;;16.73;47.97;101645.06;5039678;28;45241;-65
2023/09/25 08:30:50;;;;;;;;;11.50;8.50;;;;;16.82;47.83;101646.63;5039614;28;45244;-66
2023/09/25 08:33:15;;;;;;;;;10.25;8.00;;;;;16.88;48.23;101646.47;5039344;28;45321;-65
2023/09/25 08:35:44;;;;;;;;;9.25;8.25;;;;;16.99;48.17;101640.88;5039045;28;45932;-65
2023/09/25 08:38:09;;;;;;;;;10.25;8.25;;;;;17.08;48.08;101648.63;5032637;28;45348;-65
2023/09/25 08:40:38;;;;;;;;;8.25;7.00;;;;;17.16;47.96;101643.09;5019452;28;45561;-65
2023/09/25 08:43:05;;;;;;;;;13.00;9.50;;;;;17.22;47.99;101633.16;5026413;28;45283;-65
2023/09/25 08:45:32;;;;;;;;;7.50;6.75;;;;;17.30;47.79;101637.38;5039087;28;46423;-66
2023/09/25 08:47:57;;;;;;;;;9.25;7.50;;;;;17.39;48.05;101637.13;5038917;28;45555;-65
2023/09/25 08:50:23;;;;;;;;;5.00;5.00;;;;;17.48;48.00;101639.53;5024235;28;45452;-66
2023/09/25 08:52:48;;;;;;;;;11.25;8.25;;;;;17.54;47.99;101641.13;5042599;28;45511;-66
2023/09/25 08:55:13;;;;;;;;;6.75;6.50;;;;;17.61;47.95;101642.69;5022392;28;45361;-66
2023/09/25 08:57:40;;;;;;;;;7.00;7.00;;;;;17.66;47.90;101639.88;5004831;28;45311;-66
2023/09/25 09:00:11;;;;;;;;;5.00;4.75;;;;;17.75;48.01;101642.28;5036779;28;45233;-66
2023/09/25 09:02:40;;;;;;;;;8.25;7.00;;;;;17.84;48.00;101643.78;5042464;28;45273;-66
2023/09/25 09:05:06;;;;;;;;;9.25;8.75;;;;;17.91;47.80;101640.03;5024229;28;46206;-66
2023/09/25 09:07:32;;;;;;;;;13.00;9.25;;;;;17.99;47.80;101647.81;5042224;28;45288;-65
2023/09/25 09:09:57;;;;;;;;;8.25;5.75;;;;;18.08;48.02;101636.00;5041548;28;45134;-65
2023/09/25 09:12:23;;;;;;;;;5.75;4.25;;;;;18.21;47.90;101644.47;5042478;28;45470;-65
2023/09/25 09:14:48;;;;;;;;;7.75;5.50;;;;;18.32;48.11;101647.66;5024301;28;45453;-65
2023/09/25 09:17:13;;;;;;;;;7.00;6.25;;;;;18.43;48.08;101645.50;5042025;28;45212;-65
2023/09/25 09:19:48;;;;;;;;;9.50;7.25;;;;;18.57;48.23;101639.72;5042473;28;45430;-65
2023/09/25 09:22:16;;;;;;;;;8.50;6.75;;;;;18.72;48.07;101648.13;5024373;28;45976;-65
2023/09/25 09:24:43;;;;;;;;;7.50;4.25;;;;;18.84;48.28;101640.59;5041927;28;47014;-65
2023/09/25 09:27:09;;;;;;;;;7.75;5.00;;;;;18.96;48.51;101641.97;5041751;28;45372;-65
2023/09/25 09:29:43;;;;;;;;;8.25;6.25;;;;;19.11;48.00;101651.22;5023667;28;45283;-68
2023/09/25 09:32:09;;;;;;;;;7.00;6.25;;;;;19.25;48.39;101658.72;5042005;28;45471;-65
2023/09/25 09:34:37;;;;;;;;;7.00;6.00;;;;;19.38;48.19;101653.78;5041733;28;46206;-65
2023/09/25 09:37:02;;;;;;;;;9.25;5.75;;;;;19.48;47.83;101647.22;5023890;28;45323;-65
2023/09/25 09:39:37;;;;;;;;;4.00;4.00;;;;;19.66;48.45;101655.47;5023907;28;45181;-65
2023/09/25 09:42:08;;;;;;;;;8.00;4.75;;;;;19.78;47.87;101652.28;5021878;28;45481;-65
2023/09/25 09:44:33;;;;;;;;;4.75;4.75;;;;;19.93;47.70;101658.88;5021633;28;45366;-65
2023/09/25 09:47:04;;;;;;;;;8.50;6.25;;;;;20.02;47.79;101662.97;5021510;28;45265;-65
2023/09/25 09:49:32;;;;;;;;;6.25;3.50;;;;;20.14;48.19;101665.16;5029149;28;45179;-65
2023/09/25 09:52:00;;;;;;;;;6.00;4.50;;;;;20.25;47.61;101666.53;5040994;28;45437;-65
2023/09/25 09:54:29;;;;;;;;;7.50;6.25;;;;;20.32;47.64;101661.84;5028008;28;45218;-65
2023/09/25 09:56:59;;;;;;;;;4.00;4.00;;;;;20.45;47.43;101669.28;5021210;28;45250;-66
2023/09/25 09:59:25;;;;;;;;;7.25;7.25;;;;;20.54;47.76;101657.34;5030312;28;45397;-65
2023/09/25 10:01:50;;;;;;;;;5.25;4.00;;;;;20.60;47.38;101650.88;5040432;28;45602;-65
2023/09/25 10:04:16;;;;;;;;;4.00;4.00;;;;;20.73;47.54;101662.81;5041766;28;45158;-65
2023/09/25 10:06:51;;;;;;;;;16.00;14.25;;;;;20.84;47.25;101665.03;5023292;28;45720;-65
2023/09/25 10:09:18;;;;;;;;;4.50;4.00;;;;;20.95;47.11;101667.22;5041621;28;45301;-65
2023/09/25 10:11:46;;;;;;;;;7.00;5.00;;;;;21.01;47.23;101664.28;5023294;28;46040;-65
2023/09/25 10:14:12;;;;;;;;;4.50;4.50;;;;;21.11;46.94;101662.94;5040191;28;45355;-65
2023/09/25 10:16:53;;;;;;;;;3.75;3.75;;;;;21.22;47.00;101662.47;5041080;28;45331;-65
2023/09/25 10:19:20;;;;;;;;;5.75;5.75;;;;;21.28;46.60;101658.66;5041572;28;45284;-67
2023/09/25 10:22:10;;;;;;;;;6.00;4.00;;;;;21.40;47.13;101668.78;5041004;28;45454;-67
2023/09/25 10:24:36;;;;;;;;;4.50;4.50;;;;;21.49;47.19;101656.81;5041091;28;45218;-66
2023/09/25 10:27:03;;;;;;;;;4.00;4.00;;;;;21.53;47.08;101657.53;5022966;28;45439;-67
2023/09/25 10:29:28;;;;;;;;;5.25;4.50;;;;;21.68;46.81;101662.22;5023330;28;45365;-66
2023/09/25 10:31:54;;;;;;;;;4.50;4.50;;;;;21.80;46.74;101663.47;5040897;28;45170;-66
2023/09/25 10:34:22;;;;;;;;;7.00;6.00;;;;;21.91;46.87;101653.13;5040971;28;45236;-66
2023/09/25 10:36:50;;;;;;;;;5.00;5.00;;;;;22.05;46.34;101649.78;5040980;28;45249;-66
2023/09/25 10:39:19;;;;;;;;;5.25;5.25;;;;;22.21;46.78;101654.38;5009467;28;45286;-66
2023/09/25 10:41:48;;;;;;;;;6.00;4.50;;;;;22.35;46.75;101654.59;5003152;28;45223;-67
2023/09/25 10:44:15;;;;;;;;;6.50;5.50;;;;;22.48;46.45;101651.34;5020876;28;45417;-67
2023/09/25 10:46:40;;;;;;;;;5.00;4.50;;;;;22.63;46.50;101639.84;5020583;28;45286;-67
2023/09/25 10:49:06;;;;;;;;;5.50;4.00;;;;;22.83;46.67;101649.53;5021099;28;45238;-67
2023/09/25 10:51:33;;;;;;;;;5.00;4.00;;;;;22.99;46.62;101646.94;5020929;28;45199;-66
2023/09/25 10:54:01;;;;;;;;;5.25;4.50;;;;;23.17;46.43;101642.44;5030254;28;46374;-67
2023/09/25 10:56:26;;;;;;;;;5.25;5.00;;;;;23.36;46.72;101644.97;5012049;28;45405;-66
2023/09/25 10:58:52;;;;;;;;;6.00;5.00;;;;;23.62;46.41;101656.13;5004031;28;45251;-67
2023/09/25 11:01:26;;;;;;;;;5.00;5.00;;;;;23.88;46.48;101650.25;5031373;28;45335;-67
2023/09/25 11:03:53;;;;;;;;;8.75;5.75;;;;;24.17;46.46;101652.16;5005905;28;46798;-67
2023/09/25 11:06:18;;;;;;;;;5.75;5.00;;;;;24.47;46.73;101648.66;5040330;28;45461;-67
2023/09/25 11:08:44;;;;;;;;;7.50;6.00;;;;;24.83;46.11;101649.28;5040555;28;45368;-67
2023/09/25 11:11:13;;;;;;;;;135.33;119.33;;;;;25.20;46.14;101654.25;5022366;28;45330;-67
2023/09/25 11:13:39;;;;;;;;;10.50;9.00;;;;;25.56;46.54;101650.22;5040276;28;45247;-67
2023/09/25 11:16:06;;;;;;;;;4.75;4.25;;;;;25.93;46.04;101656.78;5040324;28;45354;-67
2023/09/25 11:18:31;;;;;;;;;3.50;3.00;;;;;26.31;46.33;101657.13;5040252;28;45458;-67
2023/09/25 11:20:56;;;;;;;;;5.25;5.00;;;;;26.71;46.43;101657.13;5040266;28;45541;-67